Ammon, Virginia
Current Conditions -  °F | °C
As of 2:55 AM on Friday 24 Oct 2014 (Local Time) from KPTB Reporting Station
Clear Clear  
Wind Chill: 46°   Ceiling: Unl
Heat Index: 49°   Visibility: 10mi
Dew Point: 41°   Wind: 8mph
Humidity: 73%   Direction: 250°WSW
Pressure: 29.96"   Gusts: NA
Location:  37.16°N, 77.59°W
Report Text: KPTB 240655Z AUTO 25007KT 10SM CLR 10/05 A2996 RMK AO2 T00960049
Loading
Personal Weather Stations






























Interactive Weather Map
Tropical Storm Tracking
New forecast layout! Learn more

10-Day Weather Forecast

Advertisements
Track Severe Weather on mobile